sensor_id;sensor_type;location;lat;lon;timestamp;temperature;humidity
36594;DHT22;22603;47.900;8.146;2023-12-20T00:00:46;3.80;99.90
36594;DHT22;22603;47.900;8.146;2023-12-20T00:03:33;3.80;99.90
36594;DHT22;22603;47.900;8.146;2023-12-20T00:06:27;3.80;99.90
36594;DHT22;22603;47.900;8.146;2023-12-20T00:09:14;3.80;99.90
36594;DHT22;22603;47.900;8.146;2023-12-20T00:12:00;3.80;99.90
36594;DHT22;22603;47.900;8.146;2023-12-20T00:14:47;3.70;99.90
36594;DHT22;22603;47.900;8.146;2023-12-20T00:17:35;3.80;99.90
36594;DHT22;22603;47.900;8.146;2023-12-20T00:20:22;3.90;99.90
36594;DHT22;22603;47.900;8.146;2023-12-20T00:23:08;3.90;99.90
36594;DHT22;22603;47.900;8.146;2023-12-20T00:25:55;3.90;99.90
36594;DHT22;22603;47.900;8.146;2023-12-20T00:28:42;3.90;99.90
36594;DHT22;22603;47.900;8.146;2023-12-20T00:31:29;3.80;99.90
36594;DHT22;22603;47.900;8.146;2023-12-20T00:34:17;3.90;99.90
36594;DHT22;22603;47.900;8.146;2023-12-20T00:37:04;3.80;99.90
36594;DHT22;22603;47.900;8.146;2023-12-20T00:39:51;3.90;99.90
36594;DHT22;22603;47.900;8.146;2023-12-20T00:42:39;3.90;99.90
36594;DHT22;22603;47.900;8.146;2023-12-20T00:45:25;3.90;99.90
36594;DHT22;22603;47.900;8.146;2023-12-20T00:48:12;3.80;99.90
36594;DHT22;22603;47.900;8.146;2023-12-20T00:51:00;3.80;99.90
36594;DHT22;22603;47.900;8.146;2023-12-20T00:53:49;3.80;99.90
36594;DHT22;22603;47.900;8.146;2023-12-20T00:56:40;3.90;99.90
36594;DHT22;22603;47.900;8.146;2023-12-20T00:59:27;3.90;99.90
36594;DHT22;22603;47.900;8.146;2023-12-20T01:02:13;3.90;99.90
36594;DHT22;22603;47.900;8.146;2023-12-20T01:05:00;3.80;99.90
36594;DHT22;22603;47.900;8.146;2023-12-20T01:07:48;3.80;99.90
36594;DHT22;22603;47.900;8.146;2023-12-20T01:10:35;3.80;99.90
36594;DHT22;22603;47.900;8.146;2023-12-20T01:13:21;3.80;99.90
36594;DHT22;22603;47.900;8.146;2023-12-20T01:16:10;3.80;99.90
36594;DHT22;22603;47.900;8.146;2023-12-20T01:18:57;3.80;99.90
36594;DHT22;22603;47.900;8.146;2023-12-20T01:21:44;3.80;99.90
36594;DHT22;22603;47.900;8.146;2023-12-20T01:24:32;3.80;99.90
36594;DHT22;22603;47.900;8.146;2023-12-20T01:27:18;3.90;99.90
36594;DHT22;22603;47.900;8.146;2023-12-20T01:30:06;3.90;99.90
36594;DHT22;22603;47.900;8.146;2023-12-20T01:32:53;3.80;99.90
36594;DHT22;22603;47.900;8.146;2023-12-20T01:35:39;3.80;99.90
36594;DHT22;22603;47.900;8.146;2023-12-20T01:38:26;3.80;99.90
36594;DHT22;22603;47.900;8.146;2023-12-20T01:41:14;3.80;99.90
36594;DHT22;22603;47.900;8.146;2023-12-20T01:44:01;3.70;99.90
36594;DHT22;22603;47.900;8.146;2023-12-20T01:46:49;3.70;99.90
36594;DHT22;22603;47.900;8.146;2023-12-20T01:49:36;3.80;99.90
36594;DHT22;22603;47.900;8.146;2023-12-20T01:52:23;3.80;99.90
36594;DHT22;22603;47.900;8.146;2023-12-20T01:55:11;3.80;99.90
36594;DHT22;22603;47.900;8.146;2023-12-20T01:58:03;3.80;99.90
36594;DHT22;22603;47.900;8.146;2023-12-20T02:00:50;3.80;99.90
36594;DHT22;22603;47.900;8.146;2023-12-20T02:03:38;3.80;99.90
36594;DHT22;22603;47.900;8.146;2023-12-20T02:06:29;3.80;99.90
36594;DHT22;22603;47.900;8.146;2023-12-20T02:09:16;3.80;99.90
36594;DHT22;22603;47.900;8.146;2023-12-20T02:12:03;3.80;99.90
36594;DHT22;22603;47.900;8.146;2023-12-20T02:14:52;3.80;99.90
36594;DHT22;22603;47.900;8.146;2023-12-20T02:17:39;3.80;99.90
36594;DHT22;22603;47.900;8.146;2023-12-20T02:20:27;3.80;99.90
36594;DHT22;22603;47.900;8.146;2023-12-20T02:23:14;3.70;99.90
36594;DHT22;22603;47.900;8.146;2023-12-20T02:26:02;3.70;99.90
36594;DHT22;22603;47.900;8.146;2023-12-20T02:28:49;3.60;99.90
36594;DHT22;22603;47.900;8.146;2023-12-20T02:31:35;3.60;99.90
36594;DHT22;22603;47.900;8.146;2023-12-20T02:34:22;3.60;99.90
36594;DHT22;22603;47.900;8.146;2023-12-20T02:37:09;3.50;99.90
36594;DHT22;22603;47.900;8.146;2023-12-20T02:39:57;3.40;99.90
36594;DHT22;22603;47.900;8.146;2023-12-20T02:42:44;3.30;99.90
36594;DHT22;22603;47.900;8.146;2023-12-20T02:45:30;3.30;99.90
36594;DHT22;22603;47.900;8.146;2023-12-20T02:48:17;3.20;99.90
36594;DHT22;22603;47.900;8.146;2023-12-20T02:51:04;3.10;99.90
36594;DHT22;22603;47.900;8.146;2023-12-20T02:53:51;3.10;99.90
36594;DHT22;22603;47.900;8.146;2023-12-20T02:56:40;3.00;99.90
36594;DHT22;22603;47.900;8.146;2023-12-20T02:59:26;3.00;99.90
36594;DHT22;22603;47.900;8.146;2023-12-20T03:02:13;2.90;99.90
36594;DHT22;22603;47.900;8.146;2023-12-20T03:05:01;2.90;99.90
36594;DHT22;22603;47.900;8.146;2023-12-20T03:07:47;2.80;99.90
36594;DHT22;22603;47.900;8.146;2023-12-20T03:10:34;2.80;99.90
36594;DHT22;22603;47.900;8.146;2023-12-20T03:13:22;2.80;99.90
36594;DHT22;22603;47.900;8.146;2023-12-20T03:16:09;2.80;99.90
36594;DHT22;22603;47.900;8.146;2023-12-20T03:18:55;2.80;99.90
36594;DHT22;22603;47.900;8.146;2023-12-20T03:21:42;2.80;99.90
36594;DHT22;22603;47.900;8.146;2023-12-20T03:24:29;2.70;99.90
36594;DHT22;22603;47.900;8.146;2023-12-20T03:27:16;2.70;99.90
36594;DHT22;22603;47.900;8.146;2023-12-20T03:30:05;2.70;99.90
36594;DHT22;22603;47.900;8.146;2023-12-20T03:32:52;2.60;99.90
36594;DHT22;22603;47.900;8.146;2023-12-20T03:35:38;2.60;99.90
36594;DHT22;22603;47.900;8.146;2023-12-20T03:38:25;2.60;99.90
36594;DHT22;22603;47.900;8.146;2023-12-20T03:41:12;2.50;99.90
36594;DHT22;22603;47.900;8.146;2023-12-20T03:43:58;2.50;99.90
36594;DHT22;22603;47.900;8.146;2023-12-20T03:46:46;2.50;99.90
36594;DHT22;22603;47.900;8.146;2023-12-20T03:49:34;2.40;99.90
36594;DHT22;22603;47.900;8.146;2023-12-20T03:52:23;2.40;99.90
36594;DHT22;22603;47.900;8.146;2023-12-20T03:55:10;2.40;99.90
36594;DHT22;22603;47.900;8.146;2023-12-20T03:57:57;2.30;99.90
36594;DHT22;22603;47.900;8.146;2023-12-20T04:00:44;2.30;99.90
36594;DHT22;22603;47.900;8.146;2023-12-20T04:03:32;2.20;99.90
36594;DHT22;22603;47.900;8.146;2023-12-20T04:06:19;2.20;99.90
36594;DHT22;22603;47.900;8.146;2023-12-20T04:09:06;2.20;99.90
36594;DHT22;22603;47.900;8.146;2023-12-20T04:11:54;2.10;99.90
36594;DHT22;22603;47.900;8.146;2023-12-20T04:14:41;2.10;99.90
36594;DHT22;22603;47.900;8.146;2023-12-20T04:17:27;2.10;99.90
36594;DHT22;22603;47.900;8.146;2023-12-20T04:20:16;2.00;99.90
36594;DHT22;22603;47.900;8.146;2023-12-20T04:23:03;2.00;99.90
36594;DHT22;22603;47.900;8.146;2023-12-20T04:25:50;2.00;99.90
36594;DHT22;22603;47.900;8.146;2023-12-20T04:28:36;2.00;99.90
36594;DHT22;22603;47.900;8.146;2023-12-20T04:31:23;1.90;99.90
36594;DHT22;22603;47.900;8.146;2023-12-20T04:34:10;1.90;99.90
36594;DHT22;22603;47.900;8.146;2023-12-20T04:36:58;1.80;99.90
36594;DHT22;22603;47.900;8.146;2023-12-20T04:39:44;1.80;99.90
36594;DHT22;22603;47.900;8.146;2023-12-20T04:42:31;1.80;99.90
36594;DHT22;22603;47.900;8.146;2023-12-20T04:45:18;1.70;99.90
36594;DHT22;22603;47.900;8.146;2023-12-20T04:48:05;1.80;99.90
36594;DHT22;22603;47.900;8.146;2023-12-20T04:50:52;1.80;99.90
36594;DHT22;22603;47.900;8.146;2023-12-20T04:53:40;1.90;99.90
36594;DHT22;22603;47.900;8.146;2023-12-20T04:56:27;1.90;99.90
36594;DHT22;22603;47.900;8.146;2023-12-20T04:59:13;1.80;99.90
36594;DHT22;22603;47.900;8.146;2023-12-20T05:02:00;1.80;99.90
36594;DHT22;22603;47.900;8.146;2023-12-20T05:04:47;1.80;99.90
36594;DHT22;22603;47.900;8.146;2023-12-20T05:07:35;1.70;99.90
36594;DHT22;22603;47.900;8.146;2023-12-20T05:10:24;1.70;99.90
36594;DHT22;22603;47.900;8.146;2023-12-20T05:13:12;1.70;99.90
36594;DHT22;22603;47.900;8.146;2023-12-20T05:15:58;1.80;99.90
36594;DHT22;22603;47.900;8.146;2023-12-20T05:18:47;1.80;99.90
36594;DHT22;22603;47.900;8.146;2023-12-20T05:21:33;1.80;99.90
36594;DHT22;22603;47.900;8.146;2023-12-20T05:24:21;1.80;99.90
36594;DHT22;22603;47.900;8.146;2023-12-20T05:27:09;1.80;99.90
36594;DHT22;22603;47.900;8.146;2023-12-20T05:29:56;1.90;99.90
36594;DHT22;22603;47.900;8.146;2023-12-20T05:32:43;1.90;99.90
36594;DHT22;22603;47.900;8.146;2023-12-20T05:35:30;1.90;99.90
36594;DHT22;22603;47.900;8.146;2023-12-20T05:38:17;1.90;99.90
36594;DHT22;22603;47.900;8.146;2023-12-20T05:41:04;1.90;99.90
36594;DHT22;22603;47.900;8.146;2023-12-20T05:43:52;2.00;99.90
36594;DHT22;22603;47.900;8.146;2023-12-20T05:46:39;2.00;99.90
36594;DHT22;22603;47.900;8.146;2023-12-20T05:49:26;2.10;99.90
36594;DHT22;22603;47.900;8.146;2023-12-20T05:52:12;2.10;99.90
36594;DHT22;22603;47.900;8.146;2023-12-20T05:54:59;2.10;99.90
36594;DHT22;22603;47.900;8.146;2023-12-20T05:57:47;2.10;99.90
36594;DHT22;22603;47.900;8.146;2023-12-20T06:00:35;2.10;99.90
36594;DHT22;22603;47.900;8.146;2023-12-20T06:03:21;2.20;99.90
36594;DHT22;22603;47.900;8.146;2023-12-20T06:06:09;2.20;99.90
36594;DHT22;22603;47.900;8.146;2023-12-20T06:09:01;2.10;99.90
36594;DHT22;22603;47.900;8.146;2023-12-20T06:11:48;2.20;99.90
36594;DHT22;22603;47.900;8.146;2023-12-20T06:14:34;2.20;99.90
36594;DHT22;22603;47.900;8.146;2023-12-20T06:17:22;2.30;99.90
36594;DHT22;22603;47.900;8.146;2023-12-20T06:20:10;2.30;99.90
36594;DHT22;22603;47.900;8.146;2023-12-20T06:22:57;2.40;99.90
36594;DHT22;22603;47.900;8.146;2023-12-20T06:25:44;2.50;99.90
36594;DHT22;22603;47.900;8.146;2023-12-20T06:28:31;2.50;99.90
36594;DHT22;22603;47.900;8.146;2023-12-20T06:31:17;2.50;99.90
36594;DHT22;22603;47.900;8.146;2023-12-20T06:34:05;2.70;99.90
36594;DHT22;22603;47.900;8.146;2023-12-20T06:36:53;2.70;99.90
36594;DHT22;22603;47.900;8.146;2023-12-20T06:39:40;2.60;99.90
36594;DHT22;22603;47.900;8.146;2023-12-20T06:42:26;2.70;99.90
36594;DHT22;22603;47.900;8.146;2023-12-20T06:45:16;2.70;99.90
36594;DHT22;22603;47.900;8.146;2023-12-20T06:48:04;2.70;99.90
36594;DHT22;22603;47.900;8.146;2023-12-20T06:50:52;2.70;99.90
36594;DHT22;22603;47.900;8.146;2023-12-20T06:53:38;2.70;99.90
36594;DHT22;22603;47.900;8.146;2023-12-20T06:56:25;2.80;99.90
36594;DHT22;22603;47.900;8.146;2023-12-20T06:59:11;2.80;99.90
36594;DHT22;22603;47.900;8.146;2023-12-20T07:01:58;2.80;99.90
36594;DHT22;22603;47.900;8.146;2023-12-20T07:04:45;2.80;99.90
36594;DHT22;22603;47.900;8.146;2023-12-20T07:07:34;2.80;99.90
36594;DHT22;22603;47.900;8.146;2023-12-20T07:10:23;2.80;99.90
36594;DHT22;22603;47.900;8.146;2023-12-20T07:13:10;2.80;99.90
36594;DHT22;22603;47.900;8.146;2023-12-20T07:15:58;2.80;99.90
36594;DHT22;22603;47.900;8.146;2023-12-20T07:18:45;2.80;99.90
36594;DHT22;22603;47.900;8.146;2023-12-20T07:21:32;2.90;99.90
36594;DHT22;22603;47.900;8.146;2023-12-20T07:24:20;2.90;99.90
36594;DHT22;22603;47.900;8.146;2023-12-20T07:27:07;2.80;99.90
36594;DHT22;22603;47.900;8.146;2023-12-20T07:29:53;2.80;99.90
36594;DHT22;22603;47.900;8.146;2023-12-20T07:32:40;2.80;99.90
36594;DHT22;22603;47.900;8.146;2023-12-20T07:35:27;2.80;99.90
36594;DHT22;22603;47.900;8.146;2023-12-20T07:38:14;2.90;99.90
36594;DHT22;22603;47.900;8.146;2023-12-20T07:41:02;2.90;99.90
36594;DHT22;22603;47.900;8.146;2023-12-20T07:43:49;2.80;99.90
36594;DHT22;22603;47.900;8.146;2023-12-20T07:46:35;2.80;99.90
36594;DHT22;22603;47.900;8.146;2023-12-20T07:49:22;2.80;99.90
36594;DHT22;22603;47.900;8.146;2023-12-20T07:52:08;2.80;99.90
36594;DHT22;22603;47.900;8.146;2023-12-20T07:54:55;2.80;99.90
36594;DHT22;22603;47.900;8.146;2023-12-20T07:57:43;2.80;99.90
36594;DHT22;22603;47.900;8.146;2023-12-20T08:00:31;2.90;99.90
36594;DHT22;22603;47.900;8.146;2023-12-20T08:03:17;2.90;99.90
36594;DHT22;22603;47.900;8.146;2023-12-20T08:06:04;2.80;99.90
36594;DHT22;22603;47.900;8.146;2023-12-20T08:08:51;2.90;99.90
36594;DHT22;22603;47.900;8.146;2023-12-20T08:11:46;2.80;99.90
36594;DHT22;22603;47.900;8.146;2023-12-20T08:14:35;2.80;99.90
36594;DHT22;22603;47.900;8.146;2023-12-20T08:17:21;2.80;99.90
36594;DHT22;22603;47.900;8.146;2023-12-20T08:20:09;2.80;99.90
36594;DHT22;22603;47.900;8.146;2023-12-20T08:23:00;2.80;99.90
36594;DHT22;22603;47.900;8.146;2023-12-20T08:25:47;2.80;99.90
36594;DHT22;22603;47.900;8.146;2023-12-20T08:28:34;2.80;99.90
36594;DHT22;22603;47.900;8.146;2023-12-20T08:31:24;2.80;99.90
36594;DHT22;22603;47.900;8.146;2023-12-20T08:34:11;2.90;99.90
36594;DHT22;22603;47.900;8.146;2023-12-20T08:37:00;2.90;99.90
36594;DHT22;22603;47.900;8.146;2023-12-20T08:39:47;2.80;99.90
36594;DHT22;22603;47.900;8.146;2023-12-20T08:42:34;2.90;99.90
36594;DHT22;22603;47.900;8.146;2023-12-20T08:45:21;2.80;99.90
36594;DHT22;22603;47.900;8.146;2023-12-20T08:48:09;2.80;99.90
36594;DHT22;22603;47.900;8.146;2023-12-20T08:50:56;2.90;99.90
36594;DHT22;22603;47.900;8.146;2023-12-20T08:53:44;2.80;99.90
36594;DHT22;22603;47.900;8.146;2023-12-20T08:56:33;2.80;99.90
36594;DHT22;22603;47.900;8.146;2023-12-20T08:59:20;2.80;99.90
36594;DHT22;22603;47.900;8.146;2023-12-20T09:02:06;2.90;99.90
36594;DHT22;22603;47.900;8.146;2023-12-20T09:04:54;2.80;99.90
36594;DHT22;22603;47.900;8.146;2023-12-20T09:07:42;2.80;99.90
36594;DHT22;22603;47.900;8.146;2023-12-20T09:10:29;2.80;99.90
36594;DHT22;22603;47.900;8.146;2023-12-20T09:13:16;2.90;99.90
36594;DHT22;22603;47.900;8.146;2023-12-20T09:16:03;2.90;99.90
36594;DHT22;22603;47.900;8.146;2023-12-20T09:18:50;2.80;99.90
36594;DHT22;22603;47.900;8.146;2023-12-20T09:21:39;2.90;99.90
36594;DHT22;22603;47.900;8.146;2023-12-20T09:24:26;2.90;99.90
36594;DHT22;22603;47.900;8.146;2023-12-20T09:27:13;2.90;99.90
36594;DHT22;22603;47.900;8.146;2023-12-20T09:30:00;2.90;99.90
36594;DHT22;22603;47.900;8.146;2023-12-20T09:32:47;2.80;99.90
36594;DHT22;22603;47.900;8.146;2023-12-20T09:35:34;2.70;99.90
36594;DHT22;22603;47.900;8.146;2023-12-20T09:38:23;2.80;99.90
36594;DHT22;22603;47.900;8.146;2023-12-20T09:41:09;2.70;99.90
36594;DHT22;22603;47.900;8.146;2023-12-20T09:43:58;2.60;99.90
36594;DHT22;22603;47.900;8.146;2023-12-20T09:46:49;2.50;99.90
36594;DHT22;22603;47.900;8.146;2023-12-20T09:49:36;2.50;99.90
36594;DHT22;22603;47.900;8.146;2023-12-20T09:52:24;2.50;99.90
36594;DHT22;22603;47.900;8.146;2023-12-20T09:55:12;2.40;99.90
36594;DHT22;22603;47.900;8.146;2023-12-20T09:58:00;2.30;99.90
36594;DHT22;22603;47.900;8.146;2023-12-20T10:00:48;2.30;99.90
36594;DHT22;22603;47.900;8.146;2023-12-20T10:03:35;2.20;99.90
36594;DHT22;22603;47.900;8.146;2023-12-20T10:06:23;2.20;99.90
36594;DHT22;22603;47.900;8.146;2023-12-20T10:09:11;2.20;99.90
36594;DHT22;22603;47.900;8.146;2023-12-20T10:11:59;2.30;99.90
36594;DHT22;22603;47.900;8.146;2023-12-20T10:14:45;2.30;99.90
36594;DHT22;22603;47.900;8.146;2023-12-20T10:17:32;2.30;99.90
36594;DHT22;22603;47.900;8.146;2023-12-20T10:20:19;2.30;99.90
36594;DHT22;22603;47.900;8.146;2023-12-20T10:23:06;2.30;99.90
36594;DHT22;22603;47.900;8.146;2023-12-20T10:25:59;2.40;99.90
36594;DHT22;22603;47.900;8.146;2023-12-20T10:28:50;2.40;99.90
36594;DHT22;22603;47.900;8.146;2023-12-20T10:31:38;2.40;99.90
36594;DHT22;22603;47.900;8.146;2023-12-20T10:34:25;2.50;99.90
36594;DHT22;22603;47.900;8.146;2023-12-20T10:37:12;2.50;99.90
36594;DHT22;22603;47.900;8.146;2023-12-20T10:40:00;2.40;99.90
36594;DHT22;22603;47.900;8.146;2023-12-20T10:42:50;2.30;99.90
36594;DHT22;22603;47.900;8.146;2023-12-20T10:45:39;2.20;99.90
36594;DHT22;22603;47.900;8.146;2023-12-20T10:48:26;2.30;99.90
36594;DHT22;22603;47.900;8.146;2023-12-20T10:51:17;2.30;99.90
36594;DHT22;22603;47.900;8.146;2023-12-20T10:54:05;2.30;99.90
36594;DHT22;22603;47.900;8.146;2023-12-20T10:56:54;2.30;99.90
36594;DHT22;22603;47.900;8.146;2023-12-20T10:59:43;2.20;99.90
36594;DHT22;22603;47.900;8.146;2023-12-20T11:02:39;2.20;99.90
36594;DHT22;22603;47.900;8.146;2023-12-20T11:05:33;2.20;99.90
36594;DHT22;22603;47.900;8.146;2023-12-20T11:08:27;2.20;99.90
36594;DHT22;22603;47.900;8.146;2023-12-20T11:11:20;2.10;99.90
36594;DHT22;22603;47.900;8.146;2023-12-20T11:14:15;2.10;99.90
36594;DHT22;22603;47.900;8.146;2023-12-20T11:17:07;2.00;99.90
36594;DHT22;22603;47.900;8.146;2023-12-20T11:20:09;2.00;99.90
36594;DHT22;22603;47.900;8.146;2023-12-20T11:23:00;2.00;99.90
36594;DHT22;22603;47.900;8.146;2023-12-20T11:25:48;2.00;99.90
36594;DHT22;22603;47.900;8.146;2023-12-20T11:28:35;1.80;99.90
36594;DHT22;22603;47.900;8.146;2023-12-20T11:31:21;1.70;99.90
36594;DHT22;22603;47.900;8.146;2023-12-20T11:34:13;1.80;99.90
36594;DHT22;22603;47.900;8.146;2023-12-20T11:37:02;1.80;99.90
36594;DHT22;22603;47.900;8.146;2023-12-20T11:39:55;1.60;99.90
36594;DHT22;22603;47.900;8.146;2023-12-20T11:42:42;1.70;99.90
36594;DHT22;22603;47.900;8.146;2023-12-20T11:45:30;1.60;99.90
36594;DHT22;22603;47.900;8.146;2023-12-20T11:48:17;1.60;99.90
36594;DHT22;22603;47.900;8.146;2023-12-20T11:51:09;1.50;99.90
36594;DHT22;22603;47.900;8.146;2023-12-20T11:53:57;1.50;99.90
36594;DHT22;22603;47.900;8.146;2023-12-20T11:56:45;1.60;99.90
36594;DHT22;22603;47.900;8.146;2023-12-20T11:59:32;1.60;99.90
36594;DHT22;22603;47.900;8.146;2023-12-20T12:02:18;1.60;99.90
36594;DHT22;22603;47.900;8.146;2023-12-20T12:05:06;1.70;99.90
36594;DHT22;22603;47.900;8.146;2023-12-20T12:07:53;1.80;99.90
36594;DHT22;22603;47.900;8.146;2023-12-20T12:10:41;1.70;99.90
36594;DHT22;22603;47.900;8.146;2023-12-20T12:13:28;1.80;99.90
36594;DHT22;22603;47.900;8.146;2023-12-20T12:16:17;1.90;99.90
36594;DHT22;22603;47.900;8.146;2023-12-20T12:19:04;1.90;99.90
36594;DHT22;22603;47.900;8.146;2023-12-20T12:21:51;1.80;99.90
36594;DHT22;22603;47.900;8.146;2023-12-20T12:24:38;1.80;99.90
36594;DHT22;22603;47.900;8.146;2023-12-20T12:27:27;1.80;99.90
36594;DHT22;22603;47.900;8.146;2023-12-20T12:30:16;1.80;99.90
36594;DHT22;22603;47.900;8.146;2023-12-20T12:33:04;1.80;99.90
36594;DHT22;22603;47.900;8.146;2023-12-20T12:35:51;1.80;99.90
36594;DHT22;22603;47.900;8.146;2023-12-20T12:38:38;1.80;99.90
36594;DHT22;22603;47.900;8.146;2023-12-20T12:41:24;1.70;99.90
36594;DHT22;22603;47.900;8.146;2023-12-20T12:44:13;1.80;99.90
36594;DHT22;22603;47.900;8.146;2023-12-20T12:47:03;1.80;99.90
36594;DHT22;22603;47.900;8.146;2023-12-20T12:49:52;1.80;99.90
36594;DHT22;22603;47.900;8.146;2023-12-20T12:52:39;1.80;99.90
36594;DHT22;22603;47.900;8.146;2023-12-20T12:55:26;1.70;99.90
36594;DHT22;22603;47.900;8.146;2023-12-20T12:58:13;1.70;99.90
36594;DHT22;22603;47.900;8.146;2023-12-20T13:01:01;1.70;99.90
36594;DHT22;22603;47.900;8.146;2023-12-20T13:03:49;1.70;99.90
36594;DHT22;22603;47.900;8.146;2023-12-20T13:06:36;1.60;99.90
36594;DHT22;22603;47.900;8.146;2023-12-20T13:09:22;1.60;99.90
36594;DHT22;22603;47.900;8.146;2023-12-20T13:12:09;1.50;99.90
36594;DHT22;22603;47.900;8.146;2023-12-20T13:14:56;1.60;99.90
36594;DHT22;22603;47.900;8.146;2023-12-20T13:17:44;1.60;99.90
36594;DHT22;22603;47.900;8.146;2023-12-20T13:20:32;1.60;99.90
36594;DHT22;22603;47.900;8.146;2023-12-20T13:23:19;1.60;99.90
36594;DHT22;22603;47.900;8.146;2023-12-20T13:26:07;1.60;99.90
36594;DHT22;22603;47.900;8.146;2023-12-20T13:28:54;1.60;99.90
36594;DHT22;22603;47.900;8.146;2023-12-20T13:31:40;1.60;99.90
36594;DHT22;22603;47.900;8.146;2023-12-20T13:34:29;1.70;99.90
36594;DHT22;22603;47.900;8.146;2023-12-20T13:37:16;1.70;99.90
36594;DHT22;22603;47.900;8.146;2023-12-20T13:40:04;1.80;99.90
36594;DHT22;22603;47.900;8.146;2023-12-20T13:42:51;1.90;99.90
36594;DHT22;22603;47.900;8.146;2023-12-20T13:45:40;2.00;99.90
36594;DHT22;22603;47.900;8.146;2023-12-20T13:48:27;1.90;99.90
36594;DHT22;22603;47.900;8.146;2023-12-20T13:51:14;1.90;99.90
36594;DHT22;22603;47.900;8.146;2023-12-20T13:54:02;1.90;99.90
36594;DHT22;22603;47.900;8.146;2023-12-20T13:56:48;1.80;99.90
36594;DHT22;22603;47.900;8.146;2023-12-20T13:59:53;1.90;99.90
36594;DHT22;22603;47.900;8.146;2023-12-20T14:02:40;1.90;99.90
36594;DHT22;22603;47.900;8.146;2023-12-20T14:05:27;1.80;99.90
36594;DHT22;22603;47.900;8.146;2023-12-20T14:08:15;2.00;99.90
36594;DHT22;22603;47.900;8.146;2023-12-20T14:11:05;1.80;99.90
36594;DHT22;22603;47.900;8.146;2023-12-20T14:13:52;1.70;99.90
36594;DHT22;22603;47.900;8.146;2023-12-20T14:16:43;1.70;99.90
36594;DHT22;22603;47.900;8.146;2023-12-20T14:19:30;1.70;99.90
36594;DHT22;22603;47.900;8.146;2023-12-20T14:22:17;1.60;99.90
36594;DHT22;22603;47.900;8.146;2023-12-20T14:25:06;1.60;99.90
36594;DHT22;22603;47.900;8.146;2023-12-20T14:27:54;1.60;99.90
36594;DHT22;22603;47.900;8.146;2023-12-20T14:30:41;1.70;99.90
36594;DHT22;22603;47.900;8.146;2023-12-20T14:33:27;1.70;99.90
36594;DHT22;22603;47.900;8.146;2023-12-20T14:36:14;1.80;99.90
36594;DHT22;22603;47.900;8.146;2023-12-20T14:39:03;1.90;99.90
36594;DHT22;22603;47.900;8.146;2023-12-20T14:41:52;1.70;99.90
36594;DHT22;22603;47.900;8.146;2023-12-20T14:44:40;1.70;99.90
36594;DHT22;22603;47.900;8.146;2023-12-20T14:47:27;1.70;99.90
36594;DHT22;22603;47.900;8.146;2023-12-20T14:50:13;1.70;99.90
36594;DHT22;22603;47.900;8.146;2023-12-20T14:53:04;1.70;99.90
36594;DHT22;22603;47.900;8.146;2023-12-20T14:55:51;1.80;99.90
36594;DHT22;22603;47.900;8.146;2023-12-20T14:58:39;1.80;99.90
36594;DHT22;22603;47.900;8.146;2023-12-20T15:01:26;1.80;99.90
36594;DHT22;22603;47.900;8.146;2023-12-20T15:04:13;1.80;99.90
36594;DHT22;22603;47.900;8.146;2023-12-20T15:07:00;1.80;99.90
36594;DHT22;22603;47.900;8.146;2023-12-20T15:09:50;1.80;99.90
36594;DHT22;22603;47.900;8.146;2023-12-20T15:12:36;1.80;99.90
36594;DHT22;22603;47.900;8.146;2023-12-20T15:15:24;1.80;99.90
36594;DHT22;22603;47.900;8.146;2023-12-20T15:18:13;1.80;99.90
36594;DHT22;22603;47.900;8.146;2023-12-20T15:21:00;1.80;99.90
36594;DHT22;22603;47.900;8.146;2023-12-20T15:23:46;1.80;99.90
36594;DHT22;22603;47.900;8.146;2023-12-20T15:26:38;1.90;99.90
36594;DHT22;22603;47.900;8.146;2023-12-20T15:29:25;1.80;99.90
36594;DHT22;22603;47.900;8.146;2023-12-20T15:32:13;1.70;99.90
36594;DHT22;22603;47.900;8.146;2023-12-20T15:35:00;1.70;99.90
36594;DHT22;22603;47.900;8.146;2023-12-20T15:37:47;1.70;99.90
36594;DHT22;22603;47.900;8.146;2023-12-20T15:40:34;1.60;99.90
36594;DHT22;22603;47.900;8.146;2023-12-20T15:43:21;1.50;99.90
36594;DHT22;22603;47.900;8.146;2023-12-20T15:46:09;1.50;99.90
36594;DHT22;22603;47.900;8.146;2023-12-20T15:48:58;1.40;99.90
36594;DHT22;22603;47.900;8.146;2023-12-20T15:51:45;1.40;99.90
36594;DHT22;22603;47.900;8.146;2023-12-20T15:54:32;1.40;99.90
36594;DHT22;22603;47.900;8.146;2023-12-20T15:57:19;1.30;99.90
36594;DHT22;22603;47.900;8.146;2023-12-20T16:00:10;1.30;99.90
36594;DHT22;22603;47.900;8.146;2023-12-20T16:02:57;1.30;99.90
36594;DHT22;22603;47.900;8.146;2023-12-20T16:05:45;1.20;99.90
36594;DHT22;22603;47.900;8.146;2023-12-20T16:08:32;1.20;99.90
36594;DHT22;22603;47.900;8.146;2023-12-20T16:11:19;1.20;99.90
36594;DHT22;22603;47.900;8.146;2023-12-20T16:14:06;1.20;99.90
36594;DHT22;22603;47.900;8.146;2023-12-20T16:16:54;1.20;99.90
36594;DHT22;22603;47.900;8.146;2023-12-20T16:19:41;1.40;99.90
36594;DHT22;22603;47.900;8.146;2023-12-20T16:22:30;1.30;99.90
36594;DHT22;22603;47.900;8.146;2023-12-20T16:25:17;1.30;99.90
36594;DHT22;22603;47.900;8.146;2023-12-20T16:28:04;1.30;99.90
36594;DHT22;22603;47.900;8.146;2023-12-20T16:30:51;1.30;99.90
36594;DHT22;22603;47.900;8.146;2023-12-20T16:33:41;1.20;99.90
36594;DHT22;22603;47.900;8.146;2023-12-20T16:36:48;1.20;99.90
36594;DHT22;22603;47.900;8.146;2023-12-20T16:39:37;1.20;99.90
36594;DHT22;22603;47.900;8.146;2023-12-20T16:42:23;1.20;99.90
36594;DHT22;22603;47.900;8.146;2023-12-20T16:45:10;1.20;99.90
36594;DHT22;22603;47.900;8.146;2023-12-20T16:47:57;1.20;99.90
36594;DHT22;22603;47.900;8.146;2023-12-20T16:50:44;1.20;99.90
36594;DHT22;22603;47.900;8.146;2023-12-20T16:53:30;1.20;99.90
36594;DHT22;22603;47.900;8.146;2023-12-20T16:56:19;1.30;99.90
36594;DHT22;22603;47.900;8.146;2023-12-20T16:59:05;1.20;99.90
36594;DHT22;22603;47.900;8.146;2023-12-20T17:01:52;1.30;99.90
36594;DHT22;22603;47.900;8.146;2023-12-20T17:04:39;1.30;99.90
36594;DHT22;22603;47.900;8.146;2023-12-20T17:07:26;1.30;99.90
36594;DHT22;22603;47.900;8.146;2023-12-20T17:10:14;1.30;99.90
36594;DHT22;22603;47.900;8.146;2023-12-20T17:13:02;1.30;99.90
36594;DHT22;22603;47.900;8.146;2023-12-20T17:15:49;1.30;99.90
36594;DHT22;22603;47.900;8.146;2023-12-20T17:18:36;1.30;99.90
36594;DHT22;22603;47.900;8.146;2023-12-20T17:21:23;1.30;99.90
36594;DHT22;22603;47.900;8.146;2023-12-20T17:24:10;1.40;99.90
36594;DHT22;22603;47.900;8.146;2023-12-20T17:26:58;1.40;99.90
36594;DHT22;22603;47.900;8.146;2023-12-20T17:29:46;1.40;99.90
36594;DHT22;22603;47.900;8.146;2023-12-20T17:32:32;1.30;99.90
36594;DHT22;22603;47.900;8.146;2023-12-20T17:35:23;1.40;99.90
36594;DHT22;22603;47.900;8.146;2023-12-20T17:38:09;1.40;99.90
36594;DHT22;22603;47.900;8.146;2023-12-20T17:40:56;1.40;99.90
36594;DHT22;22603;47.900;8.146;2023-12-20T17:43:43;1.40;99.90
36594;DHT22;22603;47.900;8.146;2023-12-20T17:46:31;1.40;99.90
36594;DHT22;22603;47.900;8.146;2023-12-20T17:49:18;1.40;99.90
36594;DHT22;22603;47.900;8.146;2023-12-20T17:52:05;1.40;99.90
36594;DHT22;22603;47.900;8.146;2023-12-20T17:54:53;1.40;99.90